sensor_id;sensor_type;location;lat;lon;timestamp;P1;durP1;ratioP1;P2;durP2;ratioP2
41105;SDS011;74159;52.530;13.188;2024-01-07T22:18:48;13.37;;;7.27;;
41105;SDS011;74159;52.530;13.188;2024-01-07T22:21:17;13.53;;;8.63;;
41105;SDS011;74159;52.530;13.188;2024-01-07T22:23:43;12.50;;;8.30;;
41105;SDS011;74159;52.530;13.188;2024-01-07T22:26:10;14.65;;;8.98;;
41105;SDS011;74159;52.530;13.188;2024-01-07T22:28:36;14.73;;;9.43;;
41105;SDS011;74159;52.530;13.188;2024-01-07T22:31:01;14.73;;;9.30;;
41105;SDS011;74159;52.530;13.188;2024-01-07T22:33:27;14.25;;;9.32;;
41105;SDS011;74159;52.530;13.188;2024-01-07T22:35:53;14.37;;;8.97;;
41105;SDS011;74159;52.530;13.188;2024-01-07T22:38:19;15.48;;;8.48;;
41105;SDS011;74159;52.530;13.188;2024-01-07T22:40:45;15.90;;;9.53;;
41105;SDS011;74159;52.530;13.188;2024-01-07T22:43:11;17.65;;;9.63;;
41105;SDS011;74159;52.530;13.188;2024-01-07T22:45:37;13.87;;;8.60;;
41105;SDS011;74159;52.530;13.188;2024-01-07T22:48:02;14.17;;;9.07;;
41105;SDS011;74159;52.530;13.188;2024-01-07T22:50:28;17.27;;;9.52;;
41105;SDS011;74159;52.530;13.188;2024-01-07T22:52:53;15.13;;;9.23;;
41105;SDS011;74159;52.530;13.188;2024-01-07T22:55:19;15.55;;;10.07;;
41105;SDS011;74159;52.530;13.188;2024-01-07T22:57:45;16.52;;;9.93;;
41105;SDS011;74159;52.530;13.188;2024-01-07T23:00:10;17.50;;;9.50;;
41105;SDS011;74159;52.530;13.188;2024-01-07T23:02:39;15.60;;;9.90;;
41105;SDS011;74159;52.530;13.188;2024-01-07T23:05:05;14.95;;;9.52;;
41105;SDS011;74159;52.530;13.188;2024-01-07T23:07:31;16.20;;;9.43;;
41105;SDS011;74159;52.530;13.188;2024-01-07T23:09:56;18.77;;;10.10;;
41105;SDS011;74159;52.530;13.188;2024-01-07T23:12:21;18.03;;;9.83;;
41105;SDS011;74159;52.530;13.188;2024-01-07T23:14:47;15.80;;;9.70;;
41105;SDS011;74159;52.530;13.188;2024-01-07T23:17:12;18.57;;;9.63;;
41105;SDS011;74159;52.530;13.188;2024-01-07T23:19:37;18.40;;;9.70;;
41105;SDS011;74159;52.530;13.188;2024-01-07T23:22:03;20.58;;;9.70;;
41105;SDS011;74159;52.530;13.188;2024-01-07T23:24:29;15.45;;;10.30;;
41105;SDS011;74159;52.530;13.188;2024-01-07T23:26:54;16.17;;;10.27;;
41105;SDS011;74159;52.530;13.188;2024-01-07T23:29:20;15.33;;;10.23;;
41105;SDS011;74159;52.530;13.188;2024-01-07T23:31:45;16.10;;;10.27;;
41105;SDS011;74159;52.530;13.188;2024-01-07T23:34:11;14.85;;;9.98;;
41105;SDS011;74159;52.530;13.188;2024-01-07T23:36:38;15.95;;;9.65;;
41105;SDS011;74159;52.530;13.188;2024-01-07T23:39:03;14.97;;;9.80;;
41105;SDS011;74159;52.530;13.188;2024-01-07T23:41:29;17.47;;;10.63;;
41105;SDS011;74159;52.530;13.188;2024-01-07T23:43:54;18.80;;;10.60;;
41105;SDS011;74159;52.530;13.188;2024-01-07T23:46:20;16.80;;;9.50;;
41105;SDS011;74159;52.530;13.188;2024-01-07T23:48:45;14.67;;;9.53;;
41105;SDS011;74159;52.530;13.188;2024-01-07T23:51:10;15.43;;;9.87;;
41105;SDS011;74159;52.530;13.188;2024-01-07T23:53:36;15.90;;;9.73;;
41105;SDS011;74159;52.530;13.188;2024-01-07T23:56:01;15.77;;;9.93;;
41105;SDS011;74159;52.530;13.188;2024-01-07T23:58:26;16.80;;;10.10;;
